Terminal Aerodrome Forecast
Issued by NWS Norman, OK

Home | Current Version | Previous Version | Text Only | Print | Product List | Glossary On
Versions: 1 2 3 4 5 6 7 8 9 10 11 12 13 14 15 16 17 18 19 20 21 22 23 24 25 26 27 28 29 30 31 32 33 34
000
FTUS44 KOUN 291238 AAA
TAFOKC
TAF AMD
KOKC 291238Z 2913/3012 07014KT P6SM VCSH BKN015
     FM291800 13014KT P6SM BKN025
      TEMPO 2920/2924 2SM TSRA BR BKN008 OVC025CB
     FM300100 16012KT P6SM BKN100=

USA.gov is the U.S. government's official web portal to all federal, state and local government web resources and services.